logo
App data

Infection: Humanity's Last Gasp

Infection: Humanity's Last Gasp uses simple mechanics in a multitude of combinations to create engaging, deep gameplay as you try to eliminate an evolving virus that could spell the end of the human race.
Store | Hub | SteamDB | Site
Developer: Criss Cross Games Publisher: HexWar Games
Genre: Casual, Strategy
Languages: English
Tags: Strategy (23), Casual (22)
Category: Single-player, Steam Achievements, Steam Trading Cards
Release date: May 26, 2016
Price: $9.99
Owners: 0 .. 20,000
Followers: 534
Peak concurrent players yesterday: 1
Playtime total: 04:25 (average) 04:25 (median)

Steam Spy is still in beta, so expect major bugs.

Owners data:

Access restricted.

This feature is only available to users with special access rights. Sorry.

If you want to proceed, you need to register or log in first and then back Steam Spy on Patreon. Look for Indie or Pro pledge.

Don't forget to use the same email as on Steam Spy!

Audience in 2 weeks:

Access restricted.

This feature is only available to users with special access rights. Sorry.

If you want to proceed, you need to register or log in first and then back Steam Spy on Patreon. Look for Indie or Pro pledge.

Don't forget to use the same email as on Steam Spy!

Peak daily concurrent players:

CCU data courtesy of SteamDB. Used with permission.

Hourly concurrent players:

Followers over time

Access restricted.

This feature is only available to users with special access rights. Sorry.

If you want to proceed, you need to register or log in first and then back Steam Spy on Patreon. Look for Indie or Pro pledge.

Don't forget to use the same email as on Steam Spy!

Views for top 50 videos on YouTube for this game:

Games similar to this one:

# Game Release date
Price
Score rank
(Userscore / Metascore)
Owners
Players
Playtime (Median)
1 Jagged Alliance 2 - Wildfire Mar 8, 2004 $2.79N/A (N/A)500,000 .. 1,000,0000%00:00 (00:00)
2 Zombie Apocalypse: Escape The Undead City Nov 25, 2013 $0.98N/A (N/A)0 .. 20,0000%00:00 (00:00)
3 Men of War: Condemned Heroes Apr 12, 2012 $1.59N/A (N/A/57%)100,000 .. 200,0000%00:00 (00:00)
4 Slash or Die Jun 3, 2016 $1.49N/A (N/A)20,000 .. 50,0000%00:00 (00:00)
5 Gemini Wars Nov 2, 2012 $4.49N/A (N/A/53%)0 .. 20,0000%00:00 (00:00)
6 Ballistic Tanks Sep 20, 2016 $4.99N/A (N/A)0 .. 20,0000%00:00 (00:00)
7 Jagged Alliance: Crossfire Aug 24, 2012 $14.99N/A (N/A/63%)100,000 .. 200,0000%00:00 (00:00)
8 Mad Combat Marines Jul 13, 2016 $0.49N/A (N/A)50,000 .. 100,0000%00:00 (00:00)
9 Eufloria HD Oct 14, 2014 $14.99N/A (N/A)100,000 .. 200,0000%00:00 (00:00)
10 Pigmentone Jul 8, 2016 $1.99N/A (N/A)0 .. 20,0000%00:00 (00:00)
11 Stellar Impact Apr 12, 2012 $9.99N/A (N/A/74%)50,000 .. 100,0000%00:00 (00:00)
12 Smithy Jun 3, 2016 $0.51N/A (N/A)20,000 .. 50,0000%00:00 (00:00)
13 Arma Tactics Oct 1, 2013 $1.79N/A (N/A/47%)200,000 .. 500,0000%00:00 (00:00)
14 Sorcerer King: Rivals Sep 22, 2016 $9.99N/A (N/A)20,000 .. 50,0000%00:00 (00:00)
15 Tryst Sep 14, 2012 $14.99N/A (N/A/50%)0 .. 20,0000%00:00 (00:00)
16 Pick a Hero Jun 9, 2016 $1.99N/A (N/A)0 .. 20,0000%00:00 (00:00)
17 Sang-Froid - Tales of Werewolves Apr 5, 2013 FreeN/A (N/A/79%)200,000 .. 500,0000%00:00 (00:00)
18 Extravaganza Rising Jul 21, 2016 N/AN/A (N/A)20,000 .. 50,0000%00:00 (00:00)
19 Check vs Mate Aug 16, 2012 $7.99N/A (N/A/69%)0 .. 20,0000%00:00 (00:00)
20 Syrian Warfare Feb 21, 2017 $3.91N/A (N/A)200,000 .. 500,00014.29%36:59 (12:19)
21 Scourge: Outbreak Apr 2, 2014 $5.99N/A (N/A)100,000 .. 200,0000%00:00 (00:00)
22 Bulletstorm: Full Clip Edition Apr 7, 2017 $5.99N/A (N/A/76%)200,000 .. 500,0000%00:00 (00:00)
23 Conflict Desert Storm Sep 13, 2002 $0.97N/A (N/A/56%)50,000 .. 100,0000%00:00 (00:00)
24 Beasts Battle Jun 15, 2016 $1.99N/A (N/A)20,000 .. 50,0000%00:00 (00:00)
25 March of the Eagles Feb 18, 2013 $3.99N/A (N/A/71%)50,000 .. 100,0000%00:00 (00:00)
26 Zombie Camp Aug 1, 2016 N/AN/A (N/A)0 .. 20,0000%00:00 (00:00)
27 Painkiller Hell & Damnation Oct 31, 2012 $19.99N/A (N/A/64%)200,000 .. 500,0000%00:00 (00:00)
28 Mr. Shifty Apr 13, 2017 $7.49N/A (N/A)100,000 .. 200,0000%00:00 (00:00)
29 Disciples III - Resurrection Oct 11, 2011 $2.99N/A (N/A/63%)100,000 .. 200,0000%00:00 (00:00)
30 ROD: Revolt Of Defense Aug 12, 2016 $0.99N/A (N/A)20,000 .. 50,0000%00:00 (00:00)
31 Zeno Clash 2 Apr 30, 2013 $2.99N/A (N/A)100,000 .. 200,0000%00:00 (00:00)
32 Quarantine Feb 9, 2017 $2.49N/A (N/A)0 .. 20,0000%00:00 (00:00)
33 Impire Feb 14, 2013 $4.99N/A (N/A/45%)100,000 .. 200,0000%00:00 (00:00)
34 Purgatory Jun 22, 2016 $0.49N/A (N/A)50,000 .. 100,0000%00:00 (00:00)
35 Heaven Forest NIGHTS Mar 13, 2017 $0.62N/A (N/A)500,000 .. 1,000,0000%00:00 (00:00)
36 TASTEE: Lethal Tactics May 10, 2016 $14.99N/A (N/A)20,000 .. 50,0000%00:00 (00:00)
37 Chronostorm: Siberian Border Apr 2, 2009 $0.49N/A (N/A)0 .. 20,0000%00:00 (00:00)
38 Disposable Heroes Oct 1, 2015 $1.99N/A (N/A)20,000 .. 50,0000%00:00 (00:00)
39 Weather Lord: The Successor's Path Apr 8, 2015 $0.49N/A (N/A)0 .. 20,0000%00:00 (00:00)
40 Skyshine's BEDLAM Sep 16, 2015 $4.99N/A (N/A/67%)50,000 .. 100,0000%00:00 (00:00)
41 The Living Dungeon Nov 2, 2015 $4.99N/A (N/A)0 .. 20,0000%00:00 (00:00)
42 Apocalypse: Party's Over May 30, 2016 N/AN/A (N/A)0 .. 20,0000%00:00 (00:00)
43 NOBUNAGA’S AMBITION: Kakushin with Power Up Kit / 信長の野望・革新 with パワーアップキット Jun 25, 2015 $21.99N/A (N/A)20,000 .. 50,0000%00:00 (00:00)
44 Pongo May 14, 2015 $0.49N/A (N/A)100,000 .. 200,0000%00:00 (00:00)
45 Super Furball May 13, 2014 $3.99N/A (N/A)0 .. 20,0000%00:00 (00:00)
46 Crossfire: Dungeons Jan 15, 2007 $3.99N/A (N/A)0 .. 20,0000%00:00 (00:00)
47 N2O: Nitrous Oxide Jun 29, 2015 $4.99N/A (N/A)0 .. 20,0000%00:00 (00:00)
48 Riddled Corpses Jun 2, 2015 $7.99N/A (N/A)20,000 .. 50,0000%00:00 (00:00)
49 Redemption: Saints And Sinners Nov 18, 2016 $0.99N/A (N/A)50,000 .. 100,0000%00:00 (00:00)
50 Once Bitten, Twice Dead! Jul 17, 2015 $4.99N/A (N/A)20,000 .. 50,0000%00:00 (00:00)
51 Curse of the Crescent Isle DX Aug 21, 2015 $0.99N/A (N/A)0 .. 20,0000%00:00 (00:00)
52 Blue Estate The Game Apr 8, 2015 $12.99N/A (N/A/59%)50,000 .. 100,0000%00:00 (00:00)
53 Overruled! Sep 15, 2015 $1.94N/A (N/A)20,000 .. 50,0000%00:00 (00:00)
54 World War 2: Time of Wrath Jun 15, 2009 $0.99N/A (N/A)20,000 .. 50,0000%00:00 (00:00)
55 Space Colony: Steam Edition Apr 30, 2015 $3.74N/A (N/A/74%)100,000 .. 200,0000%00:00 (00:00)
56 Heavy Fire: Afghanistan Aug 15, 2014 $1.19N/A (N/A)50,000 .. 100,0000%00:00 (00:00)
57 Orbital Gear Aug 7, 2014 $9.99N/A (N/A/59%)200,000 .. 500,0000%00:00 (00:00)
58 Will Fight for Food: Super Actual Sellout: Game of the Hour Apr 22, 2015 $1.54N/A (N/A)0 .. 20,0000%00:00 (00:00)
59 Rooks Keep Dec 5, 2014 $5.35N/A (N/A)0 .. 20,0000%00:00 (00:00)
60 Nux Dec 26, 2006 $0.69N/A (N/A)100,000 .. 200,0000%00:00 (00:00)
61 The Few Jun 18, 2014 $6.39N/A (N/A)50,000 .. 100,0000%00:00 (00:00)
62 Othello Aug 5, 2016 N/AN/A (N/A)20,000 .. 50,0000%00:00 (00:00)
63 Psichodelya Aug 8, 2014 $0.99N/A (N/A)50,000 .. 100,0000%00:00 (00:00)
64 Gold Rush! Classic Dec 23, 1988 $0.68N/A (N/A)200,000 .. 500,0000%00:00 (00:00)
65 Momodora III Jul 1, 2014 $1.99N/A (N/A)50,000 .. 100,0000%00:00 (00:00)
66 Neon Shadow Aug 25, 2016 $2.49N/A (N/A)0 .. 20,0000%00:00 (00:00)
67 Aeon Command Jul 3, 2014 $2.99N/A (N/A)20,000 .. 50,0000%00:00 (00:00)
68 Zombies on a Plane Mar 25, 2016 $0.49N/A (N/A)20,000 .. 50,0000%00:00 (00:00)
69 7 Grand Steps: What Ancients Begat Jun 7, 2013 $19.99N/A (N/A)100,000 .. 200,0000%00:00 (00:00)
70 Child Of Ault Jan 24, 2017 $9.99N/A (N/A)0 .. 20,0000%00:00 (00:00)
71 Armada 2526 Gold Edition Feb 28, 2013 $3.59N/A (N/A/66%)20,000 .. 50,0000%00:00 (00:00)
72 Battle Time Sep 29, 2016 $0.49N/A (N/A)50,000 .. 100,0000%00:00 (00:00)
73 Bleed Jul 3, 2013 $1.49N/A (N/A)100,000 .. 200,0000%00:00 (00:00)
74 rooMaze Mar 3, 2017 $0.49N/A (N/A)100,000 .. 200,0000%00:00 (00:00)
75 Anodyne Mar 22, 2013 $2.49N/A (N/A/75%)100,000 .. 200,0000%00:00 (00:00)
76 Grim Seventh Jan 20, 2017 FreeN/A (N/A)0 .. 20,0000%00:00 (00:00)
77 Ittle Dew Jul 23, 2013 $6.99N/A (N/A/67%)100,000 .. 200,0000%00:00 (00:00)
78 Civil War: Battle of Petersburg Feb 8, 2017 $0.49N/A (N/A)0 .. 20,0000%00:00 (00:00)
79 Eador: Genesis Aug 7, 2009 $0.59N/A (N/A)50,000 .. 100,0000%00:00 (00:00)
80 BitMaster Oct 12, 2016 $0.5N/A (N/A)100,000 .. 200,0000%00:00 (00:00)
81 CastleStorm Jul 29, 2013 $0.99N/A (N/A/73%)100,000 .. 200,0000%00:00 (00:00)
82 Wild Guns Reloaded Jul 11, 2017 $7.49N/A (N/A)20,000 .. 50,0000%00:00 (00:00)
83 Horizon Feb 6, 2014 $7.49N/A (N/A/58%)50,000 .. 100,0000%00:00 (00:00)
84 Zombo Buster Rising Oct 2, 2016 $0.49N/A (N/A)20,000 .. 50,0000%00:00 (00:00)
85 Guncraft Aug 9, 2013 $14.99N/A (N/A/73%)100,000 .. 200,0000%00:00 (00:00)
86 Heroes of Arca Feb 16, 2017 FreeN/A (N/A)0 .. 20,0000%00:00 (00:00)
87 Anomaly 2 May 15, 2013 $2.24N/A (N/A/77%)200,000 .. 500,0000%00:00 (00:00)
88 MinosMaze - The Minotaur's Labyrinth May 1, 2017 $0.49N/A (N/A)0 .. 20,0000%00:00 (00:00)
89 Divinity: Dragon Commander Aug 6, 2013 $3.99N/A (N/A)200,000 .. 500,0000%00:00 (00:00)
90 Defence to death May 11, 2017 $0.59N/A (N/A)20,000 .. 50,0000%00:00 (00:00)
91 Battle Worlds: Kronos Nov 4, 2013 $19.99N/A (N/A/71%)20,000 .. 50,0000%00:00 (00:00)
92 Toadled Sep 22, 2016 $0.99N/A (N/A)50,000 .. 100,0000%00:00 (00:00)
93 Sid Meier’s Ace Patrol Aug 27, 2013 $1.24N/A (N/A)200,000 .. 500,0000%00:00 (00:00)
94 Tank Destroyer Mar 9, 2017 $0.49N/A (N/A)50,000 .. 100,0000%00:00 (00:00)
95 Fist Puncher Jun 21, 2013 $9.99N/A (N/A/73%)20,000 .. 50,0000%00:00 (00:00)
96 Death's Hangover Jan 20, 2017 $0.49N/A (N/A)50,000 .. 100,0000%00:00 (00:00)
97 Retrovirus Jan 31, 2013 $9.99N/A (N/A/70%)0 .. 20,0000%00:00 (00:00)
98 Sudden Strike 2 Gold Aug 30, 2002 $1.79N/A (N/A)50,000 .. 100,0000%00:00 (00:00)
99 Skyward Collapse May 23, 2013 $1.24N/A (N/A/64%)100,000 .. 200,0000%00:00 (00:00)
100 Mysterium: A Psychic Clue Game Jan 12, 2017 $6.99N/A (N/A)50,000 .. 100,0000%00:00 (00:00)
101 Skulls of the Shogun Jul 29, 2013 $9.99N/A (N/A/72%)100,000 .. 200,0000%00:00 (00:00)
102 Handsome Mr. Frog Aug 8, 2016 $0.89N/A (N/A)0 .. 20,0000%00:00 (00:00)
103 Gnumz: Masters of Defense Dec 21, 2015 $4.99N/A (N/A)100,000 .. 200,0000%00:00 (00:00)
104 Prison Tycoon 3: Lockdown Jan 29, 2008 $3.99N/A (N/A)20,000 .. 50,0000%00:00 (00:00)
105 Rack N Ruin Sep 1, 2015 $9.99N/A (N/A)0 .. 20,0000%00:00 (00:00)
106 CivCity: Rome Apr 6, 2007 $9.99N/A (N/A/67%)50,000 .. 100,0000%00:00 (00:00)
107 Spooky Cats Jun 4, 2015 $0.89N/A (N/A)20,000 .. 50,0000%00:00 (00:00)
108 Nuclear Dawn Sep 26, 2011 $1.79N/A (N/A/71%)200,000 .. 500,0000%00:00 (00:00)
109 Valley Aug 24, 2016 $5.99N/A (N/A)200,000 .. 500,0000%00:00 (00:00)
110 Civilization IV: Warlords Jul 24, 2006 $4.99N/A (N/A/84%)1,000,000 .. 2,000,0000%00:00 (00:00)
111 Cast of the Seven Godsends - Redux Jul 20, 2015 $0.99N/A (N/A)20,000 .. 50,0000%00:00 (00:00)
112 Tom Clancy's EndWar Feb 25, 2009 $3.39N/A (N/A/68%)100,000 .. 200,0000%00:00 (00:00)
113 Incandescent Jun 30, 2015 $0.49N/A (N/A)20,000 .. 50,0000%00:00 (00:00)
114 Ghost Master Dec 21, 2006 $0.49N/A (N/A/81%)100,000 .. 200,0000%00:00 (00:00)
115 Explosionade Sep 23, 2015 $0.99N/A (N/A)0 .. 20,0000%00:00 (00:00)
116 Earth Defense Force: Insect Armageddon Dec 14, 2011 $9.99N/A (N/A/69%)50,000 .. 100,0000%00:00 (00:00)
117 Hydraulic Empire Jul 31, 2015 $7.99N/A (N/A)0 .. 20,0000%00:00 (00:00)
118 Making History: The Calm & the Storm Mar 13, 2007 $0.49N/A (N/A/70%)50,000 .. 100,0000%00:00 (00:00)
119 Defend The Highlands Nov 6, 2015 $9.99N/A (N/A)100,000 .. 200,0000%00:00 (00:00)
120 King Arthur - The Role-playing Wargame Nov 24, 2009 $2.49N/A (N/A)200,000 .. 500,0000%00:00 (00:00)
121 Kidnapped Aug 4, 2015 $0.89N/A (N/A)100,000 .. 200,0000%00:00 (00:00)
122 Lost Planet: Extreme Condition Jun 26, 2007 $2.99N/A (N/A/66%)200,000 .. 500,0000%00:00 (00:00)
123 Island Defense Jul 23, 2015 $1.99N/A (N/A)50,000 .. 100,0000%00:00 (00:00)
124 Elven Legacy Apr 7, 2009 $0.74N/A (N/A/71%)100,000 .. 200,0000%00:00 (00:00)
125 Dead But Alive! Southern England Oct 2, 2015 $14.99N/A (N/A)0 .. 20,0000%00:00 (00:00)
126 Warhammer 40,000: Dawn of War – Winter Assault Aug 7, 2007 $3.24N/A (N/A)500,000 .. 1,000,0000%00:00 (00:00)
127 Tiki Man Jun 4, 2015 $1.94N/A (N/A)50,000 .. 100,00016.67%00:01 (00:00)
128 Majesty Gold HD Mar 23, 2001 $2.49N/A (N/A)100,000 .. 200,0000%00:00 (00:00)
129 Ninjahtic Jul 6, 2015 $0.79N/A (N/A)0 .. 20,0000%00:00 (00:00)
130 Supreme Commander Sep 28, 2011 $2.59N/A (N/A/86%)500,000 .. 1,000,0000%00:00 (00:00)
131 Biodrone Battle Jul 16, 2015 $1.99N/A (N/A)50,000 .. 100,0000%00:00 (00:00)
132 Act of War: Direct Action Mar 14, 2005 $2.99N/A (N/A/82%)50,000 .. 100,0000%00:00 (00:00)
133 Demons with Shotguns Apr 25, 2016 $9.99N/A (N/A)0 .. 20,0000%00:00 (00:00)
134 Port Royale 2 Jun 16, 2009 $4.99N/A (N/A/75%)50,000 .. 100,0000%00:00 (00:00)
135 Tcheco in the Castle of Lucio Jun 22, 2015 $0.49N/A (N/A)50,000 .. 100,0000%00:00 (00:00)
136 Fleet Command May 15, 1999 $1.99N/A (N/A)20,000 .. 50,0000%00:00 (00:00)
137 The Nightmare Cooperative Jul 16, 2014 $1.69N/A (N/A)50,000 .. 100,0000%00:00 (00:00)
138 Foresight Nov 28, 2014 $2.99N/A (N/A)20,000 .. 50,0000%00:00 (00:00)
139 The Way May 20, 2016 $1.49N/A (N/A/67%)100,000 .. 200,0000%00:00 (00:00)
140 Stonerid Dec 18, 2013 $0.49N/A (N/A)20,000 .. 50,0000%00:00 (00:00)
141 Battle Mages: Sign of Darkness Apr 13, 2006 $0.49N/A (N/A)20,000 .. 50,0000%00:00 (00:00)
142 Hunters Of The Dead Sep 4, 2014 $0.49N/A (N/A)0 .. 20,0000%00:00 (00:00)
143 The Stalin Subway: Red Veil Oct 5, 2006 $0.5N/A (N/A)50,000 .. 100,0000%00:00 (00:00)
144 Malebolgia May 6, 2015 $12.99N/A (N/A)20,000 .. 50,0000%00:00 (00:00)
145 The Stalin Subway Oct 5, 2006 $0.51N/A (N/A)100,000 .. 200,0000%00:00 (00:00)
146 Platypus II Mar 17, 2007 $0.69N/A (N/A)200,000 .. 500,0000%00:00 (00:00)
147 Super Trench Attack! Jul 24, 2014 $0.49N/A (N/A)50,000 .. 100,0000%00:00 (00:00)
148 Gold Rush! Anniversary Nov 7, 2014 $1.37N/A (N/A)50,000 .. 100,0000%00:00 (00:00)
149 Hell Nov 13, 2014 $20.99N/A (N/A)0 .. 20,0000%00:00 (00:00)
150 There Came an Echo Feb 24, 2015 $14.99N/A (N/A/58%)20,000 .. 50,0000%00:00 (00:00)
151 Ys VI: The Ark of Napishtim Apr 28, 2015 $4.99N/A (N/A/76%)50,000 .. 100,0000%00:00 (00:00)
152 Airship Dragoon Aug 26, 2014 $4.99N/A (N/A)0 .. 20,0000%00:00 (00:00)
153 Khet 2.0 Oct 1, 2014 $9.99N/A (N/A)50,000 .. 100,0000%00:00 (00:00)
154 Dusty Revenge:Co-Op Edition Feb 17, 2014 $14.99N/A (N/A)50,000 .. 100,0000%00:00 (00:00)
155 Lords of the Black Sun Sep 12, 2014 $5.39N/A (N/A)20,000 .. 50,0000%00:00 (00:00)
156 McDROID Sep 5, 2014 $16.71N/A (N/A)0 .. 20,0000%00:00 (00:00)
157 Zafehouse: Diaries Sep 6, 2013 $0.99N/A (N/A)50,000 .. 100,0000%00:00 (00:00)
158 Hot Tin Roof: The Cat That Wore A Fedora Feb 20, 2015 $10.49N/A (N/A/66%)100,000 .. 200,0000%00:00 (00:00)
159 Dark Matter Oct 17, 2013 $1.79N/A (N/A)200,000 .. 500,0000%00:00 (00:00)
160 Silent Storm Gold Edition Sep 9, 2004 $9.99N/A (N/A/83%)200,000 .. 500,0000%00:00 (00:00)
161 Chainsaw Warrior Oct 7, 2013 $0.49N/A (N/A)100,000 .. 200,0000%00:00 (00:00)
162 PixelJunk Shooter Nov 11, 2013 $1.34N/A (N/A/73%)100,000 .. 200,0000%00:00 (00:00)
163 Stick it to The Man! Dec 13, 2013 $2.39N/A (N/A/83%)20,000 .. 50,0000%00:00 (00:00)
164 Tank Operations: European Campaign Nov 22, 2013 N/AN/A (N/A)20,000 .. 50,0000%00:00 (00:00)
165 Master Reboot Oct 29, 2013 $14.99N/A (N/A/59%)50,000 .. 100,0000%00:00 (00:00)
166 Distant Worlds: Universe May 23, 2014 $41.99N/A (N/A/81%)50,000 .. 100,0000%00:00 (00:00)
167 Anomaly Warzone Earth Mobile Campaign Nov 6, 2013 $0.74N/A (N/A)100,000 .. 200,0000%00:00 (00:00)
168 VelocityUltra Dec 12, 2013 $9.99N/A (N/A)20,000 .. 50,0000%00:00 (00:00)
169 Zombie Tycoon 2: Brainhov's Revenge Dec 9, 2013 $4.99N/A (N/A)50,000 .. 100,0000%00:00 (00:00)
170 ENSLAVED: Odyssey to the West Premium Edition Oct 24, 2013 $4.99N/A (N/A/70%)200,000 .. 500,0003.57%01:04 (00:21)
171 Vampire of the Sands Jul 17, 2015 $0.49N/A (N/A)20,000 .. 50,0000%00:00 (00:00)
172 Square Brawl Oct 22, 2015 $4.99N/A (N/A)0 .. 20,0000%00:00 (00:00)
173 Rise: Battle Lines Nov 17, 2015 N/AN/A (N/A)0 .. 20,0000%00:00 (00:00)
174 Miracle Fly Oct 26, 2015 $2.39N/A (N/A)20,000 .. 50,0000%00:00 (00:00)
175 Cashtronauts Aug 31, 2016 $2.99N/A (N/A)0 .. 20,0000%00:00 (00:00)
176 Arcane Sorcery Sep 15, 2015 FreeN/A (N/A)20,000 .. 50,0000%00:00 (00:00)
177 FIVE: Guardians of David Nov 24, 2015 $9.99N/A (N/A/66%)0 .. 20,0000%00:00 (00:00)
178 Ace of Protectors Jun 27, 2016 $1.99N/A (N/A)0 .. 20,0000%00:00 (00:00)
179 Ninjahtic Mind Tricks Jul 16, 2015 $0.79N/A (N/A)0 .. 20,0000%00:00 (00:00)
180 Reverse Crawl Sep 24, 2015 $1.19N/A (N/A)20,000 .. 50,0000%00:00 (00:00)
181 Tic-Toc-Tower Sep 28, 2015 $0.5N/A (N/A)0 .. 20,0000%00:00 (00:00)
182 The Juicer Sep 6, 2012 $0.64N/A (N/A)50,000 .. 100,0000%00:00 (00:00)
183 Rubber and Lead Sep 4, 2015 $4.99N/A (N/A)50,000 .. 100,0000%00:00 (00:00)
184 The Political Machine 2016 Feb 4, 2016 N/AN/A (N/A)50,000 .. 100,0000%00:00 (00:00)
185 Toy Odyssey: The Lost and Found Sep 20, 2016 $14.99N/A (N/A/66%)20,000 .. 50,0000%00:00 (00:00)
186 After The End: The Harvest Jun 2, 2017 $2.49N/A (N/A)20,000 .. 50,0000%00:00 (00:00)
187 Sir! I'd Like To Report A Bug! Oct 19, 2015 $0.79N/A (N/A)0 .. 20,0000%00:00 (00:00)
188 Magnifico Dec 2, 2014 $3.49N/A (N/A)20,000 .. 50,0000%00:00 (00:00)
189 Frozen Synapse Prime Nov 14, 2014 $2.49N/A (N/A/83%)100,000 .. 200,0000%00:00 (00:00)
190 Wickland Nov 14, 2014 $0.99N/A (N/A)50,000 .. 100,0000%00:00 (00:00)
191 Robotex Nov 18, 2014 $4.99N/A (N/A)200,000 .. 500,0000%00:00 (00:00)
192 War, the Game Jan 12, 2015 $2.37N/A (N/A/65%)20,000 .. 50,0000%00:00 (00:00)
193 PixelJunk Shooter Ultimate Oct 21, 2015 $1.99N/A (N/A)20,000 .. 50,0000%00:00 (00:00)
194 Desert Ashes Nov 10, 2014 $4.99N/A (N/A)20,000 .. 50,0000%00:00 (00:00)
195 Fortified Feb 3, 2016 $2.24N/A (N/A)500,000 .. 1,000,0000%00:00 (00:00)
196 Run or Die Dec 11, 2014 $4.99N/A (N/A)20,000 .. 50,0000%00:00 (00:00)
197 ManaCollect Apr 17, 2015 $1.74N/A (N/A)0 .. 20,0000%00:00 (00:00)
198 Fat Chicken Dec 4, 2014 $9.99N/A (N/A)0 .. 20,0000%00:00 (00:00)
199 Bet On Soldier Sep 26, 2005 $1.59N/A (N/A)100,000 .. 200,0000%00:00 (00:00)
200 Viking Squad Oct 4, 2016 $3.74N/A (N/A)0 .. 20,0000%00:00 (00:00)
201 Bloodsports.TV Mar 30, 2015 $2.49N/A (N/A/69%)50,000 .. 100,0000%00:00 (00:00)
202 FEIST Jul 23, 2015 $3.99N/A (N/A/65%)20,000 .. 50,0000%00:00 (00:00)
203 Deadlings: Rotten Edition Nov 11, 2014 $3.99N/A (N/A)20,000 .. 50,0000%00:00 (00:00)
204 7th Legion Jan 1, 1997 $1.74N/A (N/A)0 .. 20,0000%00:00 (00:00)
205 Meridian: New World Apr 4, 2014 $1.39N/A (N/A/43%)100,000 .. 200,0000%00:00 (00:00)
206 Pixel Boy and the Ever Expanding Dungeon May 30, 2014 $0.99N/A (N/A)20,000 .. 50,0000%00:00 (00:00)
207 Ground Pounders Jul 15, 2014 $1.24N/A (N/A)0 .. 20,0000%00:00 (00:00)
208 Unearthed: Trail of Ibn Battuta - Episode 1 - Gold Edition Jan 3, 2014 $4.99N/A (N/A)20,000 .. 50,0000%00:00 (00:00)
209 Gun Metal Sep 23, 2003 $0.74N/A (N/A)200,000 .. 500,0000%00:00 (00:00)
210 SPACECOM Sep 17, 2014 $9.99N/A (N/A/68%)100,000 .. 200,0000%00:00 (00:00)
211 Antisquad Oct 31, 2014 $5.99N/A (N/A)50,000 .. 100,0000%00:00 (00:00)
212 Wyv and Keep: The Temple of the Lost Idol Aug 8, 2014 $14.99N/A (N/A)0 .. 20,0000%00:00 (00:00)
213 Meltdown Jun 5, 2014 $1.04N/A (N/A)100,000 .. 200,0000%00:00 (00:00)
214 Guns n Zombies Oct 30, 2014 $7.99N/A (N/A)100,000 .. 200,0000%00:00 (00:00)
215 Ku: Shroud of the Morrigan Mar 17, 2014 $4.99N/A (N/A)20,000 .. 50,0000%00:00 (00:00)
216 Major Mayhem Feb 24, 2014 $4.99N/A (N/A)20,000 .. 50,0000%00:00 (00:00)
217 Z Steel Soldiers Aug 1, 2014 $12.99N/A (N/A)50,000 .. 100,0000%00:00 (00:00)
218 Platformines Mar 28, 2014 $9.99N/A (N/A/67%)50,000 .. 100,0000%00:00 (00:00)
219 Bedlam Oct 13, 2015 $12.99N/A (N/A/54%)100,000 .. 200,0009.09%00:12 (00:04)
220 Deadly 30 Jan 8, 2014 $0.99N/A (N/A)100,000 .. 200,0000%00:00 (00:00)
221 Last Knight: Rogue Rider Edition Oct 3, 2014 $1.59N/A (N/A)20,000 .. 50,0000%00:00 (00:00)
222 Gurgamoth Feb 16, 2016 $9.99N/A (N/A)0 .. 20,0000%00:00 (00:00)
223 Disciples III - Renaissance Steam Special Edition Jul 16, 2010 $2.99N/A (N/A/56%)200,000 .. 500,0000%00:00 (00:00)
224 Knight Adventure Oct 15, 2015 $0.99N/A (N/A)50,000 .. 100,0000%00:00 (00:00)
225 Greed Corp Dec 10, 2010 $9.99N/A (N/A/76%)200,000 .. 500,0000%00:00 (00:00)
226 Kill The Plumber Dec 31, 2015 $4.99N/A (N/A)0 .. 20,0000%00:00 (00:00)
227 Chaser Jul 16, 2010 $1.24N/A (N/A/66%)100,000 .. 200,0000%00:00 (00:00)
228 Run Rabbit Run Mar 31, 2016 $3.19N/A (N/A)0 .. 20,0000%00:00 (00:00)
229 Atom Zombie Smasher Mar 14, 2011 $4.99N/A (N/A/75%)200,000 .. 500,0005.26%00:01 (00:00)
230 Into the Void Dec 4, 2015 $1.99N/A (N/A)20,000 .. 50,0000%00:00 (00:00)
231 Sword of the Stars II: Enhanced Edition Nov 30, 2012 $4.99N/A (N/A/65%)100,000 .. 200,0000%00:00 (00:00)
232 Angry Video Game Nerd II: ASSimilation Mar 29, 2016 $5.99N/A (N/A)20,000 .. 50,0000%00:00 (00:00)
233 Patrician IV - Steam Special Edition Sep 17, 2010 $3.74N/A (N/A/66%)100,000 .. 200,0000%00:00 (00:00)
234 Elite vs. Freedom May 31, 2016 $4.99N/A (N/A)0 .. 20,0000%00:00 (00:00)
235 The Haunted: Hells Reach Oct 24, 2011 $8.99N/A (N/A/51%)50,000 .. 100,0000%00:00 (00:00)
236 Death by Game Show Jan 22, 2016 $1.99N/A (N/A)0 .. 20,0000%00:00 (00:00)
237 Dungeons Feb 10, 2011 $1.99N/A (N/A/65%)200,000 .. 500,0000%00:00 (00:00)
238 The Legend of Dark Witch Dec 1, 2015 $2.49N/A (N/A)20,000 .. 50,0000%00:00 (00:00)
239 Dead Rising 2: Off the Record Oct 11, 2011 $5.99N/A (N/A/66%)200,000 .. 500,0000%00:00 (00:00)
240 Galaxy Admirals Jan 17, 2017 $0.79N/A (N/A)50,000 .. 100,0000%00:00 (00:00)
241 Age of Wonders Oct 2010 $1.19N/A (N/A)100,000 .. 200,0000%00:00 (00:00)
242 Militia Dec 2, 2015 $2.99N/A (N/A)0 .. 20,0000%00:00 (00:00)
243 Star Wolves 3: Civil War Mar 2, 2010 $0.99N/A (N/A)100,000 .. 200,0000%00:00 (00:00)
244 Corgi Warlock Dec 3, 2015 $0.49N/A (N/A)20,000 .. 50,0000%00:00 (00:00)
245 Age of Wonders Shadow Magic Oct 2010 $1.99N/A (N/A/82%)100,000 .. 200,00012.5%00:19 (00:06)
246 Dawn of Andromeda May 4, 2017 $5.99N/A (N/A/70%)0 .. 20,0000%00:00 (00:00)
247 Theatre of War 2: Africa 1943 Jul 9, 2010 $0.99N/A (N/A/63%)100,000 .. 200,0000%00:00 (00:00)
248 Goblin Defenders: Steel‘n’ Wood Aug 21, 2013 $1.04N/A (N/A)20,000 .. 50,0000%00:00 (00:00)
249 Neon Chrome Apr 28, 2016 $5.24N/A (N/A/74%)200,000 .. 500,0000%00:00 (00:00)
250 Caster Mar 19, 2009 $1.99N/A (N/A)200,000 .. 500,0000%00:00 (00:00)
251 Theatre of War 2: Kursk 1943 Jul 9, 2010 $0.99N/A (N/A)50,000 .. 100,0000%00:00 (00:00)
252 UnSummoning: the Spectral Horde Dec 21, 2015 FreeN/A (N/A)0 .. 20,0000%00:00 (00:00)
253 Delta Force 2 Jun 18, 2009 $4.99N/A (N/A)100,000 .. 200,0000%00:00 (00:00)
254 Crush Your Enemies Jul 13, 2016 $0.99N/A (N/A/63%)20,000 .. 50,0000%00:00 (00:00)
255 RISK: Factions Mar 8, 2011 $9.99N/A (N/A/77%)100,000 .. 200,0000%00:00 (00:00)
256 Royal Bounty HD Aug 10, 2015 $2.99N/A (N/A)0 .. 20,0000%00:00 (00:00)
257 Super Cyborg Jul 8, 2015 $1.49N/A (N/A)20,000 .. 50,0000%00:00 (00:00)
258 Strategy & Tactics: Wargame Collection Apr 22, 2016 $2.99N/A (N/A)50,000 .. 100,00025%00:01 (00:00)
259 Dustoff Heli Rescue Mar 6, 2015 $0.99N/A (N/A)20,000 .. 50,0000%00:00 (00:00)
260 Urja Jan 9, 2015 $9.99N/A (N/A)20,000 .. 50,0000%00:00 (00:00)
261 HitBox Jan 30, 2017 FreeN/A (N/A)20,000 .. 50,0000%00:00 (00:00)
262 Death Ray Manta SE Sep 17, 2015 $1.99N/A (N/A)20,000 .. 50,0000%00:00 (00:00)
263 Human Extinction Simulator Jan 21, 2015 $19.99N/A (N/A)0 .. 20,0000%00:00 (00:00)
264 Headlander Jul 25, 2016 $19.99N/A (N/A/74%)100,000 .. 200,0000%00:00 (00:00)
265 Samudai Feb 9, 2015 $0.49N/A (N/A)50,000 .. 100,0000%00:00 (00:00)
266 Shadows of War Sep 19, 2014 $2.99N/A (N/A)20,000 .. 50,0000%00:00 (00:00)
267 Tiamat X May 29, 2015 $1.99N/A (N/A)20,000 .. 50,0000%00:00 (00:00)
268 Tallowmere Mar 3, 2015 $2.39N/A (N/A)20,000 .. 50,0000%00:00 (00:00)
269 David. Mar 14, 2014 $1.99N/A (N/A)50,000 .. 100,0000%00:00 (00:00)
270 Armed with Wings: Rearmed Jun 1, 2017 $4.99N/A (N/A)20,000 .. 50,0000%00:00 (00:00)
271 Deadnaut Nov 27, 2014 $4.99N/A (N/A)0 .. 20,0000%00:00 (00:00)
272 Stay Dead Evolution Feb 4, 2015 $1.01N/A (N/A)20,000 .. 50,0000%00:00 (00:00)
273 Ubersoldier II Jul 22, 2008 $1.99N/A (N/A/62%)100,000 .. 200,0000%00:00 (00:00)
274 Albedo: Eyes from Outer Space Apr 10, 2015 $2.99N/A (N/A/66%)20,000 .. 50,0000%00:00 (00:00)
275 Woolfe - The Red Hood Diaries Mar 17, 2015 $3.39N/A (N/A/55%)100,000 .. 200,0000%00:00 (00:00)
276 Panzer Tactics HD May 22, 2014 $9.99N/A (N/A/69%)20,000 .. 50,0000%00:00 (00:00)
277 Strategic War in Europe Mar 21, 2014 $2.99N/A (N/A)20,000 .. 50,0000%00:00 (00:00)
278 RIVE: Wreck, Hack, Die, Retry! Sep 13, 2016 $2.99N/A (N/A)20,000 .. 50,0000%00:00 (00:00)
279 The Campaign Series: Fall Weiss May 30, 2014 $14.99N/A (N/A)20,000 .. 50,0000%00:00 (00:00)
280 Spider: Rite of the Shrouded Moon Aug 6, 2015 $9.99N/A (N/A)20,000 .. 50,0000%00:00 (00:00)
281 Battleplan: American Civil War Jul 4, 2014 $1.49N/A (N/A/66%)100,000 .. 200,0000%00:00 (00:00)
282 Interplanetary May 12, 2015 N/AN/A (N/A)100,000 .. 200,0000%00:00 (00:00)
283 The Entente Gold Aug 11, 2003 $0.59N/A (N/A)50,000 .. 100,0000%00:00 (00:00)
284 Devil's Dare 悪魔の挑戦 Oct 21, 2014 $12.99N/A (N/A)20,000 .. 50,0000%00:00 (00:00)
285 Enemy Mind Jun 6, 2014 $3.99N/A (N/A)100,000 .. 200,0000%00:00 (00:00)
286 Infinity Runner Jul 14, 2014 $6.99N/A (N/A/56%)0 .. 20,0000%00:00 (00:00)
287 Z Jul 4, 2014 $6.99N/A (N/A)100,000 .. 200,0000%00:00 (00:00)
288 Battlepillars Gold Edition Apr 28, 2014 $4.99N/A (N/A)20,000 .. 50,0000%00:00 (00:00)
289 Battle Group 2 Jun 13, 2014 $0.79N/A (N/A)50,000 .. 100,0000%00:00 (00:00)
290 Smell Of Death Jul 4, 2016 $9.99N/A (N/A)0 .. 20,0000%00:00 (00:00)
291 Delve Deeper Sep 24, 2010 $4.99N/A (N/A)50,000 .. 100,0000%00:00 (00:00)
292 Star Realms Mar 8, 2016 FreeN/A (N/A)100,000 .. 200,0000%00:00 (00:00)
293 Kohan: Ahriman's Gift Nov 6, 2001 $1.49N/A (N/A/79%)20,000 .. 50,0000%00:00 (00:00)
294 REDCON Apr 22, 2016 $5.99N/A (N/A)50,000 .. 100,0000%00:00 (00:00)
295 Fantasy Wars Aug 6, 2010 $0.99N/A (N/A/67%)50,000 .. 100,0000%00:00 (00:00)
296 Legends of Callasia Jun 10, 2016 $14.99N/A (N/A)50,000 .. 100,0000%00:00 (00:00)
297 Kohan II: Kings of War Aug 24, 2011 $1.49N/A (N/A/81%)20,000 .. 50,0000%00:00 (00:00)
298 Blasting Agent: Ultimate Edition Aug 17, 2016 $2.99N/A (N/A)0 .. 20,0000%00:00 (00:00)
299 Men of War: Vietnam Sep 8, 2011 $1.59N/A (N/A/68%)100,000 .. 200,0000%00:00 (00:00)
300 Control Craft 2 Feb 15, 2016 $1.49N/A (N/A)0 .. 20,0000%00:00 (00:00)
301 Demolition Inc. Sep 19, 2011 $5.99N/A (N/A)50,000 .. 100,0000%00:00 (00:00)
302 Magic Quest May 6, 2016 $1.99N/A (N/A)50,000 .. 100,0000%00:00 (00:00)
303 Carrier Command: Gaea Mission Sep 28, 2012 $6.59N/A (N/A/60%)200,000 .. 500,0000%00:00 (00:00)
304 Banzai Escape Mar 16, 2016 $5.99N/A (N/A)20,000 .. 50,0000%00:00 (00:00)
305 Warp Mar 21, 2012 $4.99N/A (N/A)20,000 .. 50,0000%00:00 (00:00)
306 Odd||Even Apr 6, 2016 $0.99N/A (N/A)20,000 .. 50,0000%00:00 (00:00)
307 Star Ruler Sep 20, 2010 $9.99N/A (N/A)50,000 .. 100,0000%00:00 (00:00)
308 Story Of the Survivor Feb 17, 2016 $3.49N/A (N/A)50,000 .. 100,0000%00:00 (00:00)
309 A Game of Dwarves Oct 23, 2012 $1.99N/A (N/A/60%)50,000 .. 100,0000%00:00 (00:00)
310 Codex of Victory Mar 16, 2017 $2.99N/A (N/A)20,000 .. 50,0000%00:00 (00:00)
311 Sengoku Sep 15, 2011 $1.99N/A (N/A/70%)100,000 .. 200,0000%00:00 (00:00)
312 DreamBreak Jul 21, 2016 $1.39N/A (N/A/46%)20,000 .. 50,0000%00:00 (00:00)
313 Dungeons - The Dark Lord Sep 27, 2011 $4.99N/A (N/A/72%)100,000 .. 200,0000%00:00 (00:00)
314 Adventure World Aug 2, 2016 $4.99N/A (N/A)0 .. 20,0000%00:00 (00:00)
315 APOX Jan 20, 2011 $14.99N/A (N/A/48%)20,000 .. 50,0000%00:00 (00:00)
316 Revenge of Roger Rouge Apr 22, 2016 $0.99N/A (N/A)20,000 .. 50,0000%00:00 (00:00)
317 Monday Night Combat Jan 24, 2011 $4.99N/A (N/A/82%)200,000 .. 500,0000%00:00 (00:00)
318 She Wants Me Dead May 13, 2016 $7.99N/A (N/A)20,000 .. 50,0000%00:00 (00:00)
319 Fate of the World Feb 28, 2011 $9.99N/A (N/A/70%)50,000 .. 100,0000%00:00 (00:00)
320 Scapeland Mar 31, 2016 $3.99N/A (N/A)0 .. 20,0000%00:00 (00:00)
321 Swords and Soldiers HD Dec 2, 2010 $1.99N/A (N/A)200,000 .. 500,0000%00:00 (00:00)
322 Super Helmets on Fire DX Ultra Edition Plus Alpha Feb 15, 2016 FreeN/A (N/A)0 .. 20,0000%00:00 (00:00)
323 A.R.E.S.: Extinction Agenda Jan 19, 2011 $4.99N/A (N/A/68%)50,000 .. 100,0000%00:00 (00:00)
324 Rise & Shine Jan 13, 2017 $14.99N/A (N/A)50,000 .. 100,0000%00:00 (00:00)
325 Spirit of War Mar 12, 2015 $9.99N/A (N/A)20,000 .. 50,0000%00:00 (00:00)
326 The Asskickers-Steam Edition Feb 6, 2015 $9.99N/A (N/A)0 .. 20,0000%00:00 (00:00)
327 Urban Empire Jan 20, 2017 $5.99N/A (N/A/62%)100,000 .. 200,0000%00:00 (00:00)
328 PeriAreion Feb 19, 2015 $5.99N/A (N/A)0 .. 20,0000%00:00 (00:00)
329 Trigger Runners Mar 3, 2016 $1.99N/A (N/A)0 .. 20,0000%00:00 (00:00)
330 Burstfire Sep 24, 2015 N/AN/A (N/A)50,000 .. 100,0000%00:00 (00:00)
331 Interloper May 21, 2015 FreeN/A (N/A/77%)20,000 .. 50,0000%00:00 (00:00)
332 Supercharged Robot VULKAISER Jun 4, 2015 $2.49N/A (N/A)20,000 .. 50,0000%00:00 (00:00)
333 Kick Ass Commandos Nov 17, 2016 $5.99N/A (N/A)20,000 .. 50,0000%00:00 (00:00)
334 Cultures - 8th Wonder of the World Mar 26, 2015 $0.49N/A (N/A)100,000 .. 200,0000%00:00 (00:00)
335 Assassin’s Creed Chronicles: India Jan 12, 2016 $3.39N/A (N/A)50,000 .. 100,0000%00:00 (00:00)
336 Fort Meow Jun 25, 2015 $6.39N/A (N/A)20,000 .. 50,0000%00:00 (00:00)
337 Nightside Apr 2, 2015 $4.99N/A (N/A)20,000 .. 50,0000%00:00 (00:00)
338 Fair Strike Feb 5, 2004 $0.51N/A (N/A/56%)0 .. 20,0000%00:00 (00:00)
339 The Bluecoats: North vs South May 10, 2012 $0.99N/A (N/A)50,000 .. 100,0000%00:00 (00:00)
340 Locoland Nov 22, 2003 $0.49N/A (N/A)0 .. 20,0000%00:00 (00:00)
341 Royal Defense Nov 6, 2014 $4.99N/A (N/A)100,000 .. 200,0000%00:00 (00:00)
342 Hard Truck Apocalypse: Arcade / Ex Machina: Arcade May 24, 2007 $0.49N/A (N/A)0 .. 20,0000%00:00 (00:00)
343 Smugglers 5 Apr 11, 2014 $9.99N/A (N/A)20,000 .. 50,0000%00:00 (00:00)
344 8-Bit Commando Jul 27, 2011 $3.99N/A (N/A)50,000 .. 100,0000%00:00 (00:00)
345 Merchants of Kaidan Nov 10, 2014 $14.99N/A (N/A)100,000 .. 200,0000%00:00 (00:00)
346 Rex Rocket Aug 5, 2014 $4.99N/A (N/A)20,000 .. 50,0000%00:00 (00:00)
347 Olympia Rising Jul 23, 2015 $2.49N/A (N/A)20,000 .. 50,0000%00:00 (00:00)
348 Freight Tycoon Inc. Aug 15, 2007 $0.49N/A (N/A)20,000 .. 50,0000%00:00 (00:00)
349 Evopollution Apr 23, 2014 $4.99N/A (N/A)0 .. 20,0000%00:00 (00:00)
350 Perimeter May 21, 2004 $0.79N/A (N/A/77%)20,000 .. 50,0000%00:00 (00:00)
351 Magnetic By Nature Nov 10, 2014 $9.99N/A (N/A)0 .. 20,0000%00:00 (00:00)
352 Collapse Sep 25, 2008 $1.99N/A (N/A)50,000 .. 100,0000%00:00 (00:00)
353 Viktor Jun 13, 2014 $0.79N/A (N/A)20,000 .. 50,0000%00:00 (00:00)
354 7,62 High Calibre Aug 24, 2007 $0.99N/A (N/A)50,000 .. 100,0000%00:00 (00:00)
355 Avoid - Sensory Overload Apr 8, 2014 $0.49N/A (N/A)20,000 .. 50,0000%00:00 (00:00)
356 The Fall May 30, 2014 $2.99N/A (N/A/76%)200,000 .. 500,0000%00:00 (00:00)
357 Shadow Ops: Red Mercury Sep 17, 2004 $1.74N/A (N/A/61%)50,000 .. 100,0000%00:00 (00:00)

Tags over time:

Access restricted.

This feature is only available to users with special access rights. Sorry.

If you want to proceed, you need to register or log in first and then back Steam Spy on Patreon. Look for Indie or Pro pledge.

Don't forget to use the same email as on Steam Spy!

Owners of this game also own:

Access restricted.

This feature is only available to users with special access rights. Sorry.

If you want to proceed, you need to register or log in first and then back Steam Spy on Patreon. Look for Indie or Pro pledge.

Don't forget to use the same email as on Steam Spy!

Playtime distribution:

Access restricted.

This feature is only available to users with special access rights. Sorry.

If you want to proceed, you need to register or log in first and then back Steam Spy on Patreon. Look for Indie or Pro pledge.

Don't forget to use the same email as on Steam Spy!

Playtime (2 weeks):

Access restricted.

This feature is only available to users with special access rights. Sorry.

If you want to proceed, you need to register or log in first and then back Steam Spy on Patreon. Look for Indie or Pro pledge.

Don't forget to use the same email as on Steam Spy!

User reviews:

Login required.

Please register or log in to see this information.